createdAt,value
2022-10-26T00:00:25.794Z,35.45
2022-10-26T00:01:25.935Z,34.97
2022-10-26T00:02:25.834Z,35.29
2022-10-26T00:03:25.918Z,35.45
2022-10-26T00:04:25.858Z,36.09
2022-10-26T00:05:25.709Z,35.45
2022-10-26T00:06:25.731Z,35.13
2022-10-26T00:07:25.677Z,35.45
2022-10-26T00:08:25.672Z,35.45
2022-10-26T00:09:25.864Z,35.45
2022-10-26T00:10:28.237Z,35.77
2022-10-26T00:11:26.623Z,35.45
2022-10-26T00:12:25.614Z,34.97
2022-10-26T00:13:25.614Z,35.45
2022-10-26T00:14:25.618Z,34.97
2022-10-26T00:15:25.618Z,35.45
2022-10-26T00:16:25.642Z,35.61
2022-10-26T00:17:25.558Z,35.77
2022-10-26T00:18:25.526Z,35.77
2022-10-26T00:19:25.617Z,35.61
2022-10-26T00:20:25.499Z,35.61
2022-10-26T00:21:25.567Z,35.77
2022-10-26T00:22:25.636Z,35.45
2022-10-26T00:23:25.457Z,35.61
2022-10-26T00:24:25.697Z,35.61
2022-10-26T00:25:25.447Z,35.61
2022-10-26T00:26:25.408Z,35.45
2022-10-26T00:27:25.454Z,35.61
2022-10-26T00:28:25.498Z,35.29
2022-10-26T00:29:25.411Z,35.61
2022-10-26T00:30:25.418Z,35.45
2022-10-26T00:31:25.355Z,35.77
2022-10-26T00:32:25.356Z,35.61
2022-10-26T00:33:25.380Z,35.61
2022-10-26T00:34:25.404Z,35.29
2022-10-26T00:35:41.401Z,35.45
2022-10-26T00:36:26.300Z,35.29
2022-10-26T00:37:25.264Z,35.61
2022-10-26T00:38:25.260Z,35.45
2022-10-26T00:39:25.392Z,36.09
2022-10-26T00:40:25.472Z,35.61
2022-10-26T00:41:25.220Z,35.29
2022-10-26T00:42:25.189Z,35.93
2022-10-26T00:43:25.190Z,35.93
2022-10-26T00:44:25.172Z,35.93
2022-10-26T00:45:25.212Z,35.77
2022-10-26T00:46:25.279Z,35.29
2022-10-26T00:47:25.130Z,35.45
2022-10-26T00:48:25.109Z,35.77
2022-10-26T00:49:25.113Z,35.45
2022-10-26T00:50:25.092Z,35.61
2022-10-26T00:51:25.199Z,35.61
2022-10-26T00:52:25.266Z,35.93
2022-10-26T00:53:25.075Z,35.61
2022-10-26T00:54:25.035Z,35.61
2022-10-26T00:55:25.053Z,35.61
2022-10-26T00:56:25.009Z,35.77
2022-10-26T00:57:25.183Z,35.61
2022-10-26T00:58:25.185Z,35.93
2022-10-26T00:59:24.963Z,35.45
2022-10-26T01:00:24.953Z,35.61
2022-10-26T01:01:24.969Z,35.45
2022-10-26T01:02:24.937Z,35.29
2022-10-26T01:03:25.067Z,35.45
2022-10-26T01:04:25.104Z,35.45
2022-10-26T01:05:24.913Z,36.58
2022-10-26T01:06:24.923Z,35.93
2022-10-26T01:07:24.869Z,35.61
2022-10-26T01:08:24.839Z,35.29
2022-10-26T01:09:24.876Z,35.29
2022-10-26T01:10:25.083Z,35.77
2022-10-26T01:11:24.803Z,35.77
2022-10-26T01:12:24.797Z,35.45
2022-10-26T01:13:24.776Z,35.93
2022-10-26T01:14:24.763Z,35.61
2022-10-26T01:15:24.785Z,35.93
2022-10-26T01:16:24.815Z,35.13
2022-10-26T01:17:24.812Z,35.93
2022-10-26T01:18:24.701Z,35.77
2022-10-26T01:19:24.692Z,35.29
2022-10-26T01:20:24.695Z,35.45
2022-10-26T01:21:24.723Z,36.58
2022-10-26T01:22:25.161Z,35.93
2022-10-26T01:23:24.649Z,35.29
2022-10-26T01:24:24.621Z,35.77
2022-10-26T01:25:24.613Z,35.77
2022-10-26T01:26:24.600Z,35.93
2022-10-26T01:27:24.623Z,35.29
2022-10-26T01:28:24.670Z,35.77
2022-10-26T01:29:24.553Z,35.93
2022-10-26T01:30:24.541Z,35.61
2022-10-26T01:31:24.537Z,37.22
2022-10-26T01:32:25.283Z,35.93
2022-10-26T01:33:24.521Z,35.45
2022-10-26T01:34:24.674Z,35.77
2022-10-26T01:35:24.475Z,35.45
2022-10-26T01:36:24.486Z,35.61
2022-10-26T01:37:25.414Z,35.93
2022-10-26T01:38:24.458Z,39.64
2022-10-26T01:39:24.455Z,36.09
2022-10-26T01:40:24.629Z,36.09
2022-10-26T01:41:24.424Z,36.90
2022-10-26T01:42:24.999Z,35.93
2022-10-26T01:43:24.385Z,35.45
2022-10-26T01:44:24.350Z,35.77
2022-10-26T01:45:24.388Z,35.61
2022-10-26T01:46:24.476Z,35.61
2022-10-26T01:47:24.324Z,35.61
2022-10-26T01:48:24.302Z,35.77
2022-10-26T01:49:24.314Z,35.93
2022-10-26T01:50:24.285Z,36.09
2022-10-26T01:51:24.304Z,35.61
2022-10-26T01:52:24.516Z,35.93
2022-10-26T01:53:24.231Z,35.77
2022-10-26T01:54:24.266Z,35.29
2022-10-26T01:55:24.236Z,35.77
2022-10-26T01:56:24.183Z,36.09
2022-10-26T01:57:24.212Z,35.61
2022-10-26T01:58:24.243Z,35.77
2022-10-26T01:59:24.153Z,35.77
2022-10-26T02:00:24.135Z,36.25
2022-10-26T02:01:24.451Z,35.61
2022-10-26T02:02:24.139Z,35.77
2022-10-26T02:03:24.211Z,35.61
2022-10-26T02:05:24.068Z,36.74
2022-10-26T02:06:24.074Z,35.93
2022-10-26T02:07:24.043Z,35.77
2022-10-26T02:08:24.014Z,35.93
2022-10-26T02:09:24.038Z,35.61
2022-10-26T02:10:24.371Z,34.80
2022-10-26T02:11:24.016Z,36.09
2022-10-26T02:12:23.961Z,35.93
2022-10-26T02:13:23.947Z,36.42
2022-10-26T02:14:23.942Z,35.61
2022-10-26T02:15:23.974Z,35.93
2022-10-26T02:16:24.118Z,35.61
2022-10-26T02:17:23.898Z,35.61
2022-10-26T02:18:23.883Z,35.45
2022-10-26T02:19:23.910Z,35.93
2022-10-26T02:20:23.862Z,35.77
2022-10-26T02:21:23.891Z,35.29
2022-10-26T02:22:24.048Z,36.42
2022-10-26T02:23:23.814Z,35.93
2022-10-26T02:24:23.810Z,35.45
2022-10-26T02:25:23.806Z,35.61
2022-10-26T02:26:23.832Z,35.29
2022-10-26T02:27:23.804Z,35.93
2022-10-26T02:28:23.906Z,35.77
2022-10-26T02:29:23.730Z,35.93
2022-10-26T02:30:23.730Z,35.61
2022-10-26T02:31:23.708Z,35.93
2022-10-26T02:32:23.701Z,35.77
2022-10-26T02:33:23.696Z,35.93
2022-10-26T02:34:23.770Z,35.77
2022-10-26T02:35:23.651Z,34.80
2022-10-26T02:36:23.644Z,35.93
2022-10-26T02:37:23.630Z,35.29
2022-10-26T02:38:23.622Z,35.77
2022-10-26T02:39:23.662Z,35.61
2022-10-26T02:40:23.747Z,36.09
2022-10-26T02:41:23.579Z,35.61
2022-10-26T02:42:23.561Z,35.93
2022-10-26T02:43:23.570Z,35.77
2022-10-26T02:44:23.549Z,35.93
2022-10-26T02:45:23.552Z,35.77
2022-10-26T02:46:23.597Z,35.93
2022-10-26T02:47:23.488Z,35.93
2022-10-26T02:48:23.470Z,35.93
2022-10-26T02:49:23.483Z,35.61
2022-10-26T02:50:23.449Z,35.45
2022-10-26T02:51:23.482Z,35.61
2022-10-26T02:52:23.557Z,35.77
2022-10-26T02:53:23.396Z,35.93
2022-10-26T02:54:23.388Z,36.25
2022-10-26T02:55:23.435Z,35.77
2022-10-26T02:56:23.379Z,35.77
2022-10-26T02:57:23.386Z,35.61
2022-10-26T02:58:23.431Z,35.61
2022-10-26T02:59:23.323Z,35.61
2022-10-26T03:00:23.344Z,35.61
2022-10-26T03:01:23.342Z,35.93
2022-10-26T03:02:23.291Z,35.45
2022-10-26T03:03:23.296Z,35.93
2022-10-26T03:04:23.463Z,35.93
2022-10-26T03:05:23.343Z,35.61
2022-10-26T03:06:23.332Z,35.93
2022-10-26T03:07:23.219Z,36.42
2022-10-26T03:08:23.258Z,35.77
2022-10-26T03:09:25.464Z,36.09
2022-10-26T03:10:23.516Z,35.61
2022-10-26T03:11:23.162Z,35.77
2022-10-26T03:12:23.154Z,36.09
2022-10-26T03:13:23.157Z,36.25
2022-10-26T03:14:23.149Z,35.93
2022-10-26T03:15:23.151Z,35.77
2022-10-26T03:16:23.191Z,35.61
2022-10-26T03:17:23.083Z,35.93
2022-10-26T03:18:23.068Z,35.61
2022-10-26T03:19:23.060Z,35.93
2022-10-26T03:20:23.050Z,35.61
2022-10-26T03:21:23.095Z,36.09
2022-10-26T03:22:23.160Z,35.61
2022-10-26T03:23:22.989Z,35.93
2022-10-26T03:24:22.993Z,35.77
2022-10-26T03:25:23.007Z,36.09
2022-10-26T03:26:22.981Z,35.61
2022-10-26T03:27:22.975Z,35.77
2022-10-26T03:28:23.033Z,35.77
2022-10-26T03:29:22.946Z,35.77
2022-10-26T03:30:23.047Z,35.61
2022-10-26T03:31:22.904Z,35.77
2022-10-26T03:32:22.867Z,35.77
2022-10-26T03:33:25.634Z,35.93
2022-10-26T03:34:23.939Z,36.42
2022-10-26T03:35:22.870Z,35.93
2022-10-26T03:36:22.824Z,35.61
2022-10-26T03:37:22.815Z,35.61
2022-10-26T03:38:22.798Z,36.25
2022-10-26T03:39:22.803Z,35.77
2022-10-26T03:40:22.955Z,35.61
2022-10-26T03:41:22.775Z,35.93
2022-10-26T03:42:22.766Z,36.09
2022-10-26T03:43:22.714Z,35.77
2022-10-26T03:44:22.732Z,35.77
2022-10-26T03:45:22.745Z,35.93
2022-10-26T03:46:22.827Z,35.61
2022-10-26T03:47:22.660Z,35.93
2022-10-26T03:48:22.660Z,35.45
2022-10-26T03:49:22.667Z,35.61
2022-10-26T03:50:22.632Z,35.77
2022-10-26T03:51:22.702Z,35.61
2022-10-26T03:52:22.847Z,35.77
2022-10-26T03:53:22.579Z,36.42
2022-10-26T03:54:22.578Z,35.45
2022-10-26T03:55:22.562Z,35.61
2022-10-26T03:56:22.549Z,36.42
2022-10-26T03:57:22.595Z,35.61
2022-10-26T03:58:22.798Z,35.29
2022-10-26T03:59:22.511Z,35.61
2022-10-26T04:00:22.518Z,35.61
2022-10-26T04:01:22.585Z,35.61
2022-10-26T04:02:22.473Z,35.93
2022-10-26T04:03:22.490Z,35.61
2022-10-26T04:04:22.718Z,35.93
2022-10-26T04:05:22.432Z,35.61
2022-10-26T04:06:22.479Z,35.61
2022-10-26T04:07:22.436Z,36.74
2022-10-26T04:08:22.378Z,35.45
2022-10-26T04:09:23.363Z,36.09
2022-10-26T04:10:22.629Z,35.77
2022-10-26T04:11:22.387Z,35.29
2022-10-26T04:12:22.326Z,35.61
2022-10-26T04:13:22.312Z,36.90
2022-10-26T04:14:22.310Z,36.09
2022-10-26T04:15:22.455Z,35.61
2022-10-26T04:16:22.399Z,35.61
2022-10-26T04:17:22.282Z,35.77
2022-10-26T04:18:22.327Z,35.93
2022-10-26T04:19:22.222Z,35.77
2022-10-26T04:20:22.287Z,35.61
2022-10-26T04:21:22.309Z,35.77
2022-10-26T04:22:22.402Z,35.77
2022-10-26T04:23:22.244Z,36.25
2022-10-26T04:24:22.156Z,35.77
2022-10-26T04:25:22.401Z,35.45
2022-10-26T04:26:22.140Z,35.61
2022-10-26T04:27:22.149Z,35.93
2022-10-26T04:28:22.375Z,35.61
2022-10-26T04:29:22.100Z,35.61
2022-10-26T04:30:22.139Z,35.29
2022-10-26T04:31:22.106Z,35.45
2022-10-26T04:32:22.051Z,35.61
2022-10-26T04:33:22.102Z,35.29
2022-10-26T04:34:22.117Z,35.45
2022-10-26T04:35:22.017Z,35.93
2022-10-26T04:36:22.018Z,35.29
2022-10-26T04:37:21.988Z,35.61
2022-10-26T04:38:21.972Z,35.45
2022-10-26T04:39:21.976Z,35.29
2022-10-26T04:40:22.266Z,37.38
2022-10-26T04:41:21.934Z,35.45
2022-10-26T04:42:21.938Z,36.09
2022-10-26T04:43:21.918Z,35.77
2022-10-26T04:44:21.892Z,35.61
2022-10-26T04:45:22.024Z,35.61
2022-10-26T04:46:21.997Z,35.29
2022-10-26T04:47:21.866Z,35.77
2022-10-26T04:48:21.859Z,35.45
2022-10-26T04:49:21.828Z,35.77
2022-10-26T04:50:23.773Z,35.93
2022-10-26T04:51:21.906Z,35.77
2022-10-26T04:52:21.919Z,35.29
2022-10-26T04:53:21.772Z,36.42
2022-10-26T04:54:21.754Z,35.61
2022-10-26T04:55:21.772Z,35.29
2022-10-26T04:56:21.731Z,35.61
2022-10-26T04:57:21.738Z,35.45
2022-10-26T04:58:21.812Z,35.77
2022-10-26T04:59:21.692Z,35.29
2022-10-26T05:00:22.055Z,35.29
2022-10-26T05:01:21.749Z,36.58
2022-10-26T05:02:21.764Z,35.29
2022-10-26T05:03:21.672Z,35.45
2022-10-26T05:04:21.825Z,35.77
2022-10-26T05:05:21.803Z,35.93
2022-10-26T05:06:21.594Z,37.87
2022-10-26T05:07:21.572Z,35.13
2022-10-26T05:08:21.557Z,37.38
2022-10-26T05:09:21.589Z,41.25
2022-10-26T05:10:21.872Z,36.74
2022-10-26T05:11:21.528Z,39.96
2022-10-26T05:12:21.511Z,35.93
2022-10-26T05:13:21.525Z,38.19
2022-10-26T05:14:21.474Z,38.03
2022-10-26T05:15:21.528Z,50.43
2022-10-26T05:16:21.662Z,35.13
2022-10-26T05:17:21.435Z,34.97
2022-10-26T05:18:21.416Z,35.13
2022-10-26T05:19:21.412Z,46.73
2022-10-26T05:20:21.430Z,62.68
2022-10-26T05:21:21.592Z,55.11
2022-10-26T05:22:21.506Z,42.54
2022-10-26T05:23:21.355Z,44.63
2022-10-26T05:24:21.337Z,36.09
2022-10-26T05:25:21.330Z,34.97
2022-10-26T05:26:21.323Z,38.35
2022-10-26T05:27:21.333Z,34.97
2022-10-26T05:28:21.454Z,34.80
2022-10-26T05:29:21.272Z,35.45
2022-10-26T05:30:21.286Z,35.93
2022-10-26T05:31:21.241Z,34.80
2022-10-26T05:32:21.270Z,35.77
2022-10-26T05:33:21.243Z,39.16
2022-10-26T05:34:21.426Z,35.13
2022-10-26T05:35:21.193Z,45.92
2022-10-26T05:36:21.191Z,48.02
2022-10-26T05:37:21.179Z,34.80
2022-10-26T05:38:21.172Z,37.54
2022-10-26T05:39:21.203Z,42.06
2022-10-26T05:40:21.353Z,40.28
2022-10-26T05:41:21.122Z,35.29
2022-10-26T05:42:21.089Z,35.45
2022-10-26T05:43:21.095Z,39.96
2022-10-26T05:44:21.073Z,34.97
2022-10-26T05:45:21.166Z,37.71
2022-10-26T05:46:21.189Z,58.49
2022-10-26T05:47:21.027Z,55.43
2022-10-26T05:48:21.019Z,51.88
2022-10-26T05:49:20.994Z,49.31
2022-10-26T05:50:21.014Z,57.85
2022-10-26T05:51:21.171Z,36.58
2022-10-26T05:52:21.099Z,37.38
2022-10-26T05:53:20.938Z,35.77
2022-10-26T05:54:20.930Z,34.64
2022-10-26T05:55:20.928Z,34.80
2022-10-26T05:56:20.915Z,34.32
2022-10-26T05:57:20.908Z,34.32
2022-10-26T05:58:21.056Z,34.48
2022-10-26T05:59:20.853Z,34.16
2022-10-26T06:00:20.866Z,35.61
2022-10-26T06:01:20.970Z,34.97
2022-10-26T06:02:20.957Z,34.97
2022-10-26T06:03:20.965Z,37.22
2022-10-26T06:04:20.958Z,49.95
2022-10-26T06:05:20.796Z,43.18
2022-10-26T06:06:20.766Z,47.21
2022-10-26T06:07:20.748Z,42.70
2022-10-26T06:08:20.755Z,35.13
2022-10-26T06:09:20.776Z,34.64
2022-10-26T06:10:20.934Z,34.97
2022-10-26T06:11:20.703Z,34.32
2022-10-26T06:12:20.677Z,34.32
2022-10-26T06:13:20.742Z,34.97
2022-10-26T06:14:20.653Z,34.97
2022-10-26T06:15:20.674Z,34.64
2022-10-26T06:16:20.719Z,34.97
2022-10-26T06:17:20.610Z,36.09
2022-10-26T06:18:20.636Z,35.93
2022-10-26T06:19:20.583Z,34.80
2022-10-26T06:20:20.595Z,37.22
2022-10-26T06:21:20.623Z,34.32
2022-10-26T06:22:20.711Z,49.47
2022-10-26T06:23:21.041Z,42.86
2022-10-26T06:24:20.518Z,37.38
2022-10-26T06:25:20.511Z,34.80
2022-10-26T06:26:20.488Z,34.64
2022-10-26T06:27:20.580Z,34.97
2022-10-26T06:28:20.932Z,37.38
2022-10-26T06:29:20.449Z,34.64
2022-10-26T06:30:20.454Z,34.48
2022-10-26T06:31:20.465Z,34.64
2022-10-26T06:32:20.406Z,34.64
2022-10-26T06:33:35.518Z,34.64
2022-10-26T06:34:21.479Z,34.32
2022-10-26T06:35:20.387Z,34.32
2022-10-26T06:36:20.363Z,34.32
2022-10-26T06:37:20.345Z,34.64
2022-10-26T06:38:20.332Z,35.77
2022-10-26T06:39:20.375Z,34.64
2022-10-26T06:40:20.399Z,34.32
2022-10-26T06:41:20.346Z,34.64
2022-10-26T06:42:20.288Z,34.80
2022-10-26T06:43:20.259Z,34.32
2022-10-26T06:44:20.240Z,34.80
2022-10-26T06:45:20.258Z,34.48
2022-10-26T06:46:20.414Z,34.48
2022-10-26T06:47:23.408Z,34.48
2022-10-26T06:48:20.225Z,34.32
2022-10-26T06:49:20.176Z,34.64
2022-10-26T06:50:20.174Z,34.48
2022-10-26T06:51:20.217Z,34.32
2022-10-26T06:52:20.394Z,34.64
2022-10-26T06:53:20.136Z,34.64
2022-10-26T06:54:20.111Z,34.64
2022-10-26T06:55:20.131Z,34.48
2022-10-26T06:56:20.104Z,34.32
2022-10-26T06:57:20.097Z,34.64
2022-10-26T06:58:20.407Z,34.80
2022-10-26T06:59:20.061Z,34.32
2022-10-26T07:00:20.159Z,55.11
2022-10-26T07:01:20.159Z,60.91
2022-10-26T07:02:20.210Z,55.59
2022-10-26T07:03:20.032Z,66.06
2022-10-26T07:04:20.113Z,54.62
2022-10-26T07:05:19.985Z,54.30
2022-10-26T07:07:19.938Z,52.69
2022-10-26T07:08:19.916Z,56.07
2022-10-26T07:09:19.995Z,62.20
2022-10-26T07:10:19.987Z,64.13
2022-10-26T07:11:19.886Z,55.43
2022-10-26T07:12:19.881Z,55.11
2022-10-26T07:13:19.857Z,60.59
2022-10-26T07:14:19.844Z,58.01
2022-10-26T07:15:19.911Z,53.50
2022-10-26T07:16:19.896Z,56.56
2022-10-26T07:17:19.825Z,57.36
2022-10-26T07:18:19.785Z,53.98
2022-10-26T07:19:19.793Z,56.24
2022-10-26T07:20:19.744Z,55.11
2022-10-26T07:21:19.825Z,53.01
2022-10-26T07:22:19.888Z,34.32
2022-10-26T07:23:19.802Z,34.32
2022-10-26T07:24:19.701Z,34.32
2022-10-26T07:25:19.704Z,34.64
2022-10-26T07:26:19.739Z,34.64
2022-10-26T07:27:19.698Z,34.32
2022-10-26T07:28:19.807Z,34.64
2022-10-26T07:29:19.644Z,43.02
2022-10-26T07:30:19.622Z,34.97
2022-10-26T07:31:19.661Z,60.75
2022-10-26T07:32:19.601Z,55.59
2022-10-26T07:33:19.771Z,54.30
2022-10-26T07:34:19.649Z,55.91
2022-10-26T07:35:19.560Z,56.56
2022-10-26T07:36:19.570Z,52.37
2022-10-26T07:37:19.525Z,54.95
2022-10-26T07:38:19.510Z,59.78
2022-10-26T07:39:19.580Z,62.20
2022-10-26T07:40:19.600Z,63.33
2022-10-26T07:41:19.493Z,58.17
2022-10-26T07:42:19.449Z,53.98
2022-10-26T07:43:19.456Z,53.98
2022-10-26T07:44:19.430Z,52.05
2022-10-26T07:45:19.439Z,50.60
2022-10-26T07:46:19.497Z,49.95
2022-10-26T07:47:19.396Z,56.40
2022-10-26T07:48:19.373Z,55.91
2022-10-26T07:49:19.756Z,54.46
2022-10-26T07:50:19.368Z,53.66
2022-10-26T07:51:19.365Z,54.14
2022-10-26T07:52:19.406Z,63.00
2022-10-26T07:53:20.479Z,61.87
2022-10-26T07:54:19.289Z,61.07
2022-10-26T07:55:19.287Z,57.52
2022-10-26T07:56:19.300Z,54.46
2022-10-26T07:57:19.317Z,62.20
2022-10-26T07:58:19.321Z,56.72
2022-10-26T07:59:19.232Z,63.49
2022-10-26T08:00:19.229Z,54.46
2022-10-26T08:01:19.322Z,55.75
2022-10-26T08:02:19.185Z,56.07
2022-10-26T08:03:19.218Z,56.56
2022-10-26T08:04:19.240Z,62.20
2022-10-26T08:05:19.207Z,53.50
2022-10-26T08:06:19.206Z,55.75
2022-10-26T08:07:19.130Z,57.20
2022-10-26T08:08:19.101Z,55.43
2022-10-26T08:09:19.112Z,53.66
2022-10-26T08:10:19.142Z,63.00
2022-10-26T08:11:19.070Z,63.49
2022-10-26T08:12:19.066Z,53.50
2022-10-26T08:13:19.023Z,62.36
2022-10-26T08:14:19.017Z,60.75
2022-10-26T08:15:19.045Z,56.56
2022-10-26T08:16:19.139Z,52.53
2022-10-26T08:17:18.980Z,52.21
2022-10-26T08:18:18.963Z,57.52
2022-10-26T08:19:18.969Z,58.81
2022-10-26T08:20:18.947Z,52.05
2022-10-26T08:21:22.083Z,56.24
2022-10-26T08:22:19.992Z,52.37
2022-10-26T08:23:18.910Z,50.60
2022-10-26T08:24:18.879Z,51.08
2022-10-26T08:25:21.270Z,50.43
2022-10-26T08:26:18.858Z,49.63
2022-10-26T08:27:18.877Z,51.88
2022-10-26T08:28:18.916Z,50.43
2022-10-26T08:29:18.838Z,50.60
2022-10-26T08:30:18.807Z,51.08
2022-10-26T08:31:18.798Z,51.08
2022-10-26T08:32:18.770Z,50.60
2022-10-26T08:33:18.804Z,50.92
2022-10-26T08:34:18.893Z,51.56
2022-10-26T08:35:18.740Z,50.11
2022-10-26T08:36:18.711Z,51.08
2022-10-26T08:37:18.703Z,50.27
2022-10-26T08:38:18.692Z,50.60
2022-10-26T08:39:18.886Z,50.27
2022-10-26T08:40:18.763Z,57.52
2022-10-26T08:41:18.668Z,53.17
2022-10-26T08:42:18.639Z,52.53
2022-10-26T08:43:18.621Z,50.60
2022-10-26T08:44:18.631Z,51.40
2022-10-26T08:45:18.624Z,51.72
2022-10-26T08:46:18.661Z,50.76
2022-10-26T08:48:18.561Z,50.76
2022-10-26T08:49:18.540Z,54.46
2022-10-26T08:50:18.524Z,54.14
2022-10-26T08:51:18.549Z,37.22
2022-10-26T08:52:18.653Z,36.90
2022-10-26T08:53:18.490Z,37.06
2022-10-26T08:54:18.472Z,36.90
2022-10-26T08:55:18.479Z,36.58
2022-10-26T08:56:18.438Z,36.09
2022-10-26T08:57:18.627Z,36.42
2022-10-26T08:58:18.559Z,35.45
2022-10-26T08:59:18.399Z,35.93
2022-10-26T09:00:18.423Z,35.45
2022-10-26T09:01:18.518Z,35.13
2022-10-26T09:02:18.367Z,35.45
2022-10-26T09:03:18.384Z,35.45
2022-10-26T09:04:18.463Z,35.29
2022-10-26T09:05:18.332Z,35.13
2022-10-26T09:06:18.311Z,34.48
2022-10-26T09:07:18.305Z,34.64
2022-10-26T09:08:18.289Z,34.97
2022-10-26T09:09:18.328Z,35.45
2022-10-26T09:10:18.457Z,34.64
2022-10-26T09:11:18.264Z,34.64
2022-10-26T09:12:18.255Z,35.13
2022-10-26T09:13:18.220Z,34.32
2022-10-26T09:14:18.214Z,34.32
2022-10-26T09:15:18.242Z,34.97
2022-10-26T09:16:18.283Z,34.16
2022-10-26T09:17:18.164Z,36.25
2022-10-26T09:18:18.145Z,37.06
2022-10-26T09:19:18.136Z,34.97
2022-10-26T09:20:18.136Z,34.97
2022-10-26T09:21:18.253Z,34.32
2022-10-26T09:22:18.255Z,34.32
2022-10-26T09:23:18.098Z,34.32
2022-10-26T09:24:18.085Z,36.42
2022-10-26T09:25:18.081Z,33.84
2022-10-26T09:26:18.664Z,34.64
2022-10-26T09:27:18.079Z,35.13
2022-10-26T09:28:18.218Z,37.38
2022-10-26T09:29:18.001Z,36.58
2022-10-26T09:30:18.091Z,36.90
2022-10-26T09:31:17.981Z,36.09
2022-10-26T09:32:18.041Z,38.35
2022-10-26T09:33:17.967Z,37.06
2022-10-26T09:34:18.006Z,38.99
2022-10-26T09:35:17.966Z,35.13
2022-10-26T09:36:17.926Z,35.93
2022-10-26T09:37:17.886Z,37.06
2022-10-26T09:38:17.876Z,35.29
2022-10-26T09:39:17.940Z,37.71
2022-10-26T09:40:18.040Z,38.99
2022-10-26T09:41:18.179Z,40.44
2022-10-26T09:42:17.828Z,35.77
2022-10-26T09:43:17.830Z,35.45
2022-10-26T09:44:17.792Z,34.32
2022-10-26T09:45:17.975Z,34.16
2022-10-26T09:46:17.917Z,38.19
2022-10-26T09:47:17.744Z,35.45
2022-10-26T09:48:17.740Z,37.71
2022-10-26T09:49:17.725Z,37.22
2022-10-26T09:50:18.118Z,50.92
2022-10-26T09:51:18.612Z,36.42
2022-10-26T09:52:17.842Z,44.47
2022-10-26T09:53:17.676Z,35.77
2022-10-26T09:54:17.657Z,36.25
2022-10-26T09:55:18.991Z,37.38
2022-10-26T09:56:17.634Z,35.13
2022-10-26T09:57:17.671Z,34.32
2022-10-26T09:58:17.828Z,34.48
2022-10-26T09:59:17.592Z,35.45
2022-10-26T10:00:17.650Z,35.29
2022-10-26T10:01:17.626Z,34.80
2022-10-26T10:02:17.547Z,34.80
2022-10-26T10:03:17.641Z,35.93
2022-10-26T10:04:17.684Z,34.16
2022-10-26T10:05:27.164Z,35.13
2022-10-26T10:06:18.628Z,33.68
2022-10-26T10:07:17.540Z,33.52
2022-10-26T10:08:17.472Z,33.68
2022-10-26T10:09:17.624Z,35.93
2022-10-26T10:10:17.638Z,33.19
2022-10-26T10:11:17.437Z,33.35
2022-10-26T10:12:17.442Z,33.84
2022-10-26T10:13:17.406Z,33.68
2022-10-26T10:14:17.390Z,34.00
2022-10-26T10:15:17.417Z,34.64
2022-10-26T10:16:17.451Z,33.35
2022-10-26T10:18:17.331Z,33.35
2022-10-26T10:19:17.335Z,33.84
2022-10-26T10:20:17.343Z,33.35
2022-10-26T10:21:17.369Z,34.64
2022-10-26T10:22:17.381Z,33.35
2022-10-26T10:23:17.282Z,33.03
2022-10-26T10:24:17.252Z,33.35
2022-10-26T10:25:17.303Z,33.35
2022-10-26T10:26:17.247Z,33.84
2022-10-26T10:27:17.289Z,33.52
2022-10-26T10:28:17.342Z,33.52
2022-10-26T10:29:17.182Z,33.68
2022-10-26T10:30:17.188Z,34.97
2022-10-26T10:31:17.343Z,33.84
2022-10-26T10:32:17.141Z,32.87
2022-10-26T10:33:18.221Z,39.32
2022-10-26T10:34:17.201Z,33.19
2022-10-26T10:35:17.114Z,33.84
2022-10-26T10:36:17.094Z,32.87
2022-10-26T10:37:17.080Z,33.35
2022-10-26T10:38:17.077Z,32.71
2022-10-26T10:39:17.157Z,40.77
2022-10-26T10:40:18.833Z,33.35
2022-10-26T10:41:17.028Z,33.52
2022-10-26T10:42:17.003Z,32.71
2022-10-26T10:43:16.996Z,32.87
2022-10-26T10:44:17.029Z,33.68
2022-10-26T10:45:17.012Z,55.27
2022-10-26T10:46:17.108Z,32.71
2022-10-26T10:47:17.659Z,32.23
2022-10-26T10:48:16.932Z,38.83
2022-10-26T10:49:16.980Z,34.00
2022-10-26T10:50:16.910Z,59.62
2022-10-26T10:51:17.006Z,34.97
2022-10-26T10:52:16.995Z,32.07
2022-10-26T10:53:16.858Z,32.55
2022-10-26T10:54:17.380Z,32.71
2022-10-26T10:55:16.840Z,34.00
2022-10-26T10:56:16.826Z,38.03
2022-10-26T10:57:16.869Z,37.87
2022-10-26T10:58:16.939Z,69.13
2022-10-26T10:59:16.798Z,32.55
2022-10-26T11:00:16.788Z,44.63
2022-10-26T11:01:16.887Z,31.58
2022-10-26T11:02:16.882Z,37.54
2022-10-26T11:03:16.836Z,61.71
2022-10-26T11:04:16.839Z,32.07
2022-10-26T11:05:16.698Z,32.87
2022-10-26T11:06:16.687Z,32.07
2022-10-26T11:07:16.664Z,31.74
2022-10-26T11:08:16.681Z,66.55
2022-10-26T11:09:16.934Z,35.13
2022-10-26T11:10:16.791Z,32.71
2022-10-26T11:11:16.618Z,34.97
2022-10-26T11:12:16.605Z,33.84
2022-10-26T11:13:16.613Z,42.70
2022-10-26T11:14:16.999Z,36.90
2022-10-26T11:15:16.628Z,33.68
2022-10-26T11:16:16.637Z,32.87
2022-10-26T11:17:16.576Z,33.84
2022-10-26T11:18:16.523Z,50.76
2022-10-26T11:19:16.501Z,38.51
2022-10-26T11:20:16.559Z,46.25
2022-10-26T11:21:16.531Z,32.39
2022-10-26T11:22:16.611Z,33.68
2022-10-26T11:23:16.464Z,33.52
2022-10-26T11:24:16.439Z,32.87
2022-10-26T11:25:16.423Z,32.87
2022-10-26T11:26:16.412Z,33.03
2022-10-26T11:27:16.421Z,32.39
2022-10-26T11:28:16.496Z,33.03
2022-10-26T11:30:16.364Z,32.71
2022-10-26T11:31:16.342Z,33.19
2022-10-26T11:32:16.345Z,32.71
2022-10-26T11:33:16.352Z,32.55
2022-10-26T11:34:16.562Z,43.51
2022-10-26T11:35:16.286Z,32.39
2022-10-26T11:36:18.562Z,69.45
2022-10-26T11:37:16.271Z,33.19
2022-10-26T11:38:20.837Z,34.97
2022-10-26T11:39:17.281Z,35.93
2022-10-26T11:40:16.383Z,34.32
2022-10-26T11:41:16.212Z,32.87
2022-10-26T11:42:16.197Z,34.97
2022-10-26T11:43:16.185Z,32.87
2022-10-26T11:44:16.166Z,43.67
2022-10-26T11:45:16.206Z,71.54
2022-10-26T11:46:19.023Z,43.51
2022-10-26T11:47:16.150Z,42.06
2022-10-26T11:48:16.116Z,43.18
2022-10-26T11:49:16.089Z,33.68
2022-10-26T11:50:17.586Z,55.91
2022-10-26T11:51:16.134Z,32.55
2022-10-26T11:52:16.146Z,31.90
2022-10-26T11:53:16.061Z,31.74
2022-10-26T11:54:16.066Z,31.58
2022-10-26T11:55:16.022Z,31.10
2022-10-26T11:56:16.003Z,31.42
2022-10-26T11:57:16.365Z,31.90
2022-10-26T11:58:16.063Z,34.16
2022-10-26T11:59:15.975Z,36.58
2022-10-26T12:00:15.967Z,32.87
2022-10-26T12:01:15.996Z,40.93
2022-10-26T12:02:15.927Z,32.39
2022-10-26T12:03:15.962Z,33.35
2022-10-26T12:04:15.896Z,36.42
2022-10-26T12:05:15.894Z,50.60
2022-10-26T12:06:15.870Z,39.64
2022-10-26T12:07:15.876Z,33.35
2022-10-26T12:08:15.849Z,30.78
2022-10-26T12:09:16.333Z,30.62
2022-10-26T12:10:19.254Z,43.99
2022-10-26T12:11:15.819Z,30.62
2022-10-26T12:12:16.211Z,30.78
2022-10-26T12:13:15.775Z,31.74
2022-10-26T12:14:15.767Z,32.07
2022-10-26T12:15:15.820Z,48.02
2022-10-26T12:16:15.938Z,36.42
2022-10-26T12:17:15.726Z,31.58
2022-10-26T12:18:16.149Z,31.42
2022-10-26T12:19:15.772Z,39.96
2022-10-26T12:20:15.704Z,43.18
2022-10-26T12:21:15.696Z,41.09
2022-10-26T12:22:15.812Z,51.56
2022-10-26T12:23:23.165Z,33.03
2022-10-26T12:24:16.630Z,35.61
2022-10-26T12:25:15.827Z,45.28
2022-10-26T12:26:16.073Z,33.84
2022-10-26T12:27:16.253Z,31.26
2022-10-26T12:28:15.864Z,34.16
2022-10-26T12:29:15.571Z,34.16
2022-10-26T12:30:15.553Z,53.50
2022-10-26T12:31:17.654Z,54.46
2022-10-26T12:32:15.520Z,33.68
2022-10-26T12:33:15.561Z,42.06
2022-10-26T12:34:15.577Z,45.76
2022-10-26T12:35:15.490Z,41.73
2022-10-26T12:36:15.465Z,36.90
2022-10-26T12:37:16.277Z,50.27
2022-10-26T12:38:15.494Z,36.74
2022-10-26T12:39:15.483Z,32.71
2022-10-26T12:40:15.637Z,38.35
2022-10-26T12:41:15.454Z,42.06
2022-10-26T12:42:15.442Z,31.58
2022-10-26T12:43:15.400Z,32.07
2022-10-26T12:44:15.355Z,32.07
2022-10-26T12:45:15.586Z,34.97
2022-10-26T12:46:15.528Z,32.71
2022-10-26T12:47:16.181Z,41.89
2022-10-26T12:48:27.633Z,32.23
2022-10-26T12:49:16.335Z,34.80
2022-10-26T12:50:15.323Z,39.32
2022-10-26T12:51:15.357Z,32.71
2022-10-26T12:52:16.318Z,47.70
2022-10-26T12:53:15.266Z,33.84
2022-10-26T12:54:15.436Z,32.39
2022-10-26T12:55:15.218Z,42.54
2022-10-26T12:56:15.269Z,32.23
2022-10-26T12:57:15.319Z,36.09